sensor_id;sensor_type;location;lat;lon;timestamp;pressure;altitude;pressure_sealevel;temperature;humidity
25759;BME280;13604;52.496;13.456;2022-09-30T00:01:38;100528.75;;;5.39;100.00
25759;BME280;13604;52.496;13.456;2022-09-30T00:04:04;100527.03;;;5.39;100.00
25759;BME280;13604;52.496;13.456;2022-09-30T00:06:30;100529.06;;;5.31;100.00
25759;BME280;13604;52.496;13.456;2022-09-30T00:08:56;100526.59;;;5.30;100.00
25759;BME280;13604;52.496;13.456;2022-09-30T00:11:30;100528.38;;;5.28;100.00
25759;BME280;13604;52.496;13.456;2022-09-30T00:13:56;100531.09;;;5.25;100.00
25759;BME280;13604;52.496;13.456;2022-09-30T00:16:23;100535.41;;;5.24;100.00
25759;BME280;13604;52.496;13.456;2022-09-30T00:18:50;100533.09;;;5.18;100.00
25759;BME280;13604;52.496;13.456;2022-09-30T00:21:15;100529.81;;;5.15;100.00
25759;BME280;13604;52.496;13.456;2022-09-30T00:23:42;100553.16;;;5.11;100.00
25759;BME280;13604;52.496;13.456;2022-09-30T00:26:11;100548.94;;;5.09;100.00
25759;BME280;13604;52.496;13.456;2022-09-30T00:28:38;100543.03;;;5.07;100.00
25759;BME280;13604;52.496;13.456;2022-09-30T00:31:05;100543.34;;;4.99;100.00
25759;BME280;13604;52.496;13.456;2022-09-30T00:33:32;100553.47;;;5.04;100.00
25759;BME280;13604;52.496;13.456;2022-09-30T00:35:57;100541.66;;;4.98;100.00
25759;BME280;13604;52.496;13.456;2022-09-30T00:38:23;100544.31;;;4.97;100.00
25759;BME280;13604;52.496;13.456;2022-09-30T00:40:48;100543.28;;;5.01;100.00
25759;BME280;13604;52.496;13.456;2022-09-30T00:43:18;100545.69;;;5.05;100.00
25759;BME280;13604;52.496;13.456;2022-09-30T00:45:57;100542.25;;;5.05;100.00
25759;BME280;13604;52.496;13.456;2022-09-30T00:48:35;100545.53;;;5.08;100.00
25759;BME280;13604;52.496;13.456;2022-09-30T00:51:02;100539.47;;;5.09;100.00
25759;BME280;13604;52.496;13.456;2022-09-30T00:53:44;100550.00;;;5.05;100.00
25759;BME280;13604;52.496;13.456;2022-09-30T00:56:16;100542.38;;;5.02;100.00
25759;BME280;13604;52.496;13.456;2022-09-30T01:01:56;100548.50;;;4.99;100.00
25759;BME280;13604;52.496;13.456;2022-09-30T01:04:22;100545.22;;;4.96;100.00
25759;BME280;13604;52.496;13.456;2022-09-30T01:06:49;100553.88;;;4.95;100.00
25759;BME280;13604;52.496;13.456;2022-09-30T01:09:15;100553.25;;;4.88;100.00
25759;BME280;13604;52.496;13.456;2022-09-30T01:11:40;100561.88;;;4.87;100.00
25759;BME280;13604;52.496;13.456;2022-09-30T01:14:14;100560.31;;;4.85;100.00
25759;BME280;13604;52.496;13.456;2022-09-30T01:17:01;100560.09;;;4.89;100.00
25759;BME280;13604;52.496;13.456;2022-09-30T01:20:10;100565.38;;;4.86;100.00
25759;BME280;13604;52.496;13.456;2022-09-30T01:23:05;100571.69;;;4.79;100.00
25759;BME280;13604;52.496;13.456;2022-09-30T01:25:53;100574.22;;;4.81;100.00
25759;BME280;13604;52.496;13.456;2022-09-30T01:31:27;100569.91;;;4.81;100.00
25759;BME280;13604;52.496;13.456;2022-09-30T01:34:13;100573.31;;;4.82;100.00
25759;BME280;13604;52.496;13.456;2022-09-30T01:36:55;100563.06;;;4.80;100.00
25759;BME280;13604;52.496;13.456;2022-09-30T01:45:11;100551.91;;;4.80;100.00
25759;BME280;13604;52.496;13.456;2022-09-30T01:47:45;100556.41;;;4.74;100.00
25759;BME280;13604;52.496;13.456;2022-09-30T01:50:27;100567.38;;;4.80;100.00
25759;BME280;13604;52.496;13.456;2022-09-30T01:53:05;100566.59;;;4.78;100.00
25759;BME280;13604;52.496;13.456;2022-09-30T01:55:48;100577.75;;;4.78;100.00
25759;BME280;13604;52.496;13.456;2022-09-30T01:58:23;100578.00;;;4.72;100.00
25759;BME280;13604;52.496;13.456;2022-09-30T02:00:52;100563.75;;;4.63;100.00
25759;BME280;13604;52.496;13.456;2022-09-30T02:03:22;100559.81;;;4.53;100.00
25759;BME280;13604;52.496;13.456;2022-09-30T02:05:53;100558.88;;;4.56;100.00
25759;BME280;13604;52.496;13.456;2022-09-30T02:08:29;100555.50;;;4.54;100.00
25759;BME280;13604;52.496;13.456;2022-09-30T02:11:04;100564.97;;;4.53;100.00
25759;BME280;13604;52.496;13.456;2022-09-30T02:16:09;100568.34;;;4.55;100.00
25759;BME280;13604;52.496;13.456;2022-09-30T02:18:50;100565.59;;;4.60;100.00
25759;BME280;13604;52.496;13.456;2022-09-30T02:21:20;100564.84;;;4.56;100.00
25759;BME280;13604;52.496;13.456;2022-09-30T02:23:50;100567.44;;;4.56;100.00
25759;BME280;13604;52.496;13.456;2022-09-30T02:26:19;100570.84;;;4.57;100.00
25759;BME280;13604;52.496;13.456;2022-09-30T02:28:53;100574.28;;;4.57;100.00
25759;BME280;13604;52.496;13.456;2022-09-30T02:31:23;100570.84;;;4.57;100.00
25759;BME280;13604;52.496;13.456;2022-09-30T02:33:57;100575.84;;;4.61;100.00
25759;BME280;13604;52.496;13.456;2022-09-30T02:36:32;100565.75;;;4.55;100.00
25759;BME280;13604;52.496;13.456;2022-09-30T02:39:02;100564.22;;;4.51;100.00
25759;BME280;13604;52.496;13.456;2022-09-30T02:41:33;100572.97;;;4.47;100.00
25759;BME280;13604;52.496;13.456;2022-09-30T02:44:01;100571.38;;;4.43;100.00
25759;BME280;13604;52.496;13.456;2022-09-30T02:46:42;100585.13;;;4.44;100.00
25759;BME280;13604;52.496;13.456;2022-09-30T02:49:25;100580.84;;;4.43;100.00
25759;BME280;13604;52.496;13.456;2022-09-30T02:52:03;100588.72;;;4.39;100.00
25759;BME280;13604;52.496;13.456;2022-09-30T02:54:46;100588.09;;;4.33;100.00
25759;BME280;13604;52.496;13.456;2022-09-30T02:57:21;100591.78;;;4.27;100.00
25759;BME280;13604;52.496;13.456;2022-09-30T02:59:54;100590.25;;;4.22;100.00
25759;BME280;13604;52.496;13.456;2022-09-30T03:02:20;100594.75;;;4.17;100.00
25759;BME280;13604;52.496;13.456;2022-09-30T03:04:47;100594.84;;;4.14;100.00
25759;BME280;13604;52.496;13.456;2022-09-30T03:07:13;100597.19;;;4.20;100.00
25759;BME280;13604;52.496;13.456;2022-09-30T03:09:39;100605.66;;;4.23;100.00
25759;BME280;13604;52.496;13.456;2022-09-30T03:12:33;100603.03;;;4.25;100.00
25759;BME280;13604;52.496;13.456;2022-09-30T03:18:04;100605.91;;;4.17;100.00
25759;BME280;13604;52.496;13.456;2022-09-30T03:20:36;100604.31;;;4.13;100.00
25759;BME280;13604;52.496;13.456;2022-09-30T03:28:35;100589.66;;;4.15;100.00
25759;BME280;13604;52.496;13.456;2022-09-30T03:31:23;100612.78;;;4.17;100.00
25759;BME280;13604;52.496;13.456;2022-09-30T03:33:54;100608.59;;;4.14;100.00
25759;BME280;13604;52.496;13.456;2022-09-30T03:36:44;100609.31;;;4.18;100.00
25759;BME280;13604;52.496;13.456;2022-09-30T03:39:25;100614.34;;;4.21;100.00
25759;BME280;13604;52.496;13.456;2022-09-30T03:42:04;100625.28;;;4.27;100.00
25759;BME280;13604;52.496;13.456;2022-09-30T03:44:55;100630.38;;;4.29;100.00
25759;BME280;13604;52.496;13.456;2022-09-30T03:47:24;100626.19;;;4.26;100.00
25759;BME280;13604;52.496;13.456;2022-09-30T03:49:55;100622.75;;;4.26;100.00
25759;BME280;13604;52.496;13.456;2022-09-30T03:52:24;100619.28;;;4.27;100.00
25759;BME280;13604;52.496;13.456;2022-09-30T03:54:56;100627.97;;;4.24;100.00
25759;BME280;13604;52.496;13.456;2022-09-30T03:57:24;100629.81;;;4.21;100.00
25759;BME280;13604;52.496;13.456;2022-09-30T03:59:53;100625.53;;;4.20;100.00
25759;BME280;13604;52.496;13.456;2022-09-30T04:02:18;100621.38;;;4.17;100.00
25759;BME280;13604;52.496;13.456;2022-09-30T04:04:43;100619.56;;;4.19;100.00
25759;BME280;13604;52.496;13.456;2022-09-30T04:07:09;100635.25;;;4.13;100.00
25759;BME280;13604;52.496;13.456;2022-09-30T04:09:36;100631.94;;;4.10;100.00
25759;BME280;13604;52.496;13.456;2022-09-30T04:12:01;100633.66;;;4.09;100.00
25759;BME280;13604;52.496;13.456;2022-09-30T04:14:27;100638.63;;;4.15;100.00
25759;BME280;13604;52.496;13.456;2022-09-30T04:16:52;100639.50;;;4.14;100.00
25759;BME280;13604;52.496;13.456;2022-09-30T04:19:18;100631.22;;;4.06;100.00
25759;BME280;13604;52.496;13.456;2022-09-30T04:21:43;100649.34;;;4.03;100.00
25759;BME280;13604;52.496;13.456;2022-09-30T04:24:08;100658.09;;;3.99;100.00
25759;BME280;13604;52.496;13.456;2022-09-30T04:26:33;100651.38;;;3.95;100.00
25759;BME280;13604;52.496;13.456;2022-09-30T04:28:59;100661.78;;;3.92;100.00
25759;BME280;13604;52.496;13.456;2022-09-30T04:31:24;100660.09;;;3.91;100.00
25759;BME280;13604;52.496;13.456;2022-09-30T04:33:49;100656.72;;;3.89;100.00
25759;BME280;13604;52.496;13.456;2022-09-30T04:36:15;100651.69;;;3.86;100.00
25759;BME280;13604;52.496;13.456;2022-09-30T04:38:41;100661.16;;;3.85;100.00
25759;BME280;13604;52.496;13.456;2022-09-30T04:41:07;100662.00;;;3.86;100.00
25759;BME280;13604;52.496;13.456;2022-09-30T04:43:33;100665.28;;;3.89;100.00
25759;BME280;13604;52.496;13.456;2022-09-30T04:45:59;100671.25;;;3.91;100.00
25759;BME280;13604;52.496;13.456;2022-09-30T04:48:24;100672.81;;;3.95;100.00
25759;BME280;13604;52.496;13.456;2022-09-30T04:50:50;100678.59;;;4.02;100.00
25759;BME280;13604;52.496;13.456;2022-09-30T04:53:17;100671.03;;;3.97;100.00
25759;BME280;13604;52.496;13.456;2022-09-30T04:55:43;100678.06;;;3.92;100.00
25759;BME280;13604;52.496;13.456;2022-09-30T04:58:10;100693.53;;;3.92;100.00
25759;BME280;13604;52.496;13.456;2022-09-30T05:00:36;100689.91;;;4.21;100.00
25759;BME280;13604;52.496;13.456;2022-09-30T05:03:01;100689.63;;;4.30;100.00
25759;BME280;13604;52.496;13.456;2022-09-30T05:05:27;100690.72;;;4.23;100.00
25759;BME280;13604;52.496;13.456;2022-09-30T05:07:58;100697.78;;;4.18;100.00
25759;BME280;13604;52.496;13.456;2022-09-30T05:10:24;100692.88;;;4.11;100.00
25759;BME280;13604;52.496;13.456;2022-09-30T05:12:51;100691.44;;;4.03;100.00
25759;BME280;13604;52.496;13.456;2022-09-30T05:15:16;100699.25;;;4.00;100.00
25759;BME280;13604;52.496;13.456;2022-09-30T05:17:42;100694.28;;;3.96;100.00
25759;BME280;13604;52.496;13.456;2022-09-30T05:20:07;100700.38;;;3.93;100.00
25759;BME280;13604;52.496;13.456;2022-09-30T05:22:35;100692.91;;;3.86;100.00
25759;BME280;13604;52.496;13.456;2022-09-30T05:25:00;100702.09;;;3.93;100.00
25759;BME280;13604;52.496;13.456;2022-09-30T05:27:26;100720.97;;;3.93;100.00
25759;BME280;13604;52.496;13.456;2022-09-30T05:29:51;100708.06;;;3.95;100.00
25759;BME280;13604;52.496;13.456;2022-09-30T05:32:17;100716.34;;;4.03;100.00
25759;BME280;13604;52.496;13.456;2022-09-30T05:34:44;100710.50;;;3.98;100.00
25759;BME280;13604;52.496;13.456;2022-09-30T05:37:09;100714.88;;;3.96;100.00
25759;BME280;13604;52.496;13.456;2022-09-30T05:39:35;100723.25;;;4.02;100.00
25759;BME280;13604;52.496;13.456;2022-09-30T05:42:00;100722.88;;;4.13;100.00
25759;BME280;13604;52.496;13.456;2022-09-30T05:44:26;100718.44;;;4.17;100.00
25759;BME280;13604;52.496;13.456;2022-09-30T05:46:51;100725.91;;;4.24;100.00
25759;BME280;13604;52.496;13.456;2022-09-30T05:49:16;100725.63;;;4.32;100.00
25759;BME280;13604;52.496;13.456;2022-09-30T05:51:41;100729.69;;;4.39;100.00
25759;BME280;13604;52.496;13.456;2022-09-30T05:54:08;100740.50;;;4.49;100.00
25759;BME280;13604;52.496;13.456;2022-09-30T05:56:34;100731.97;;;4.47;100.00
25759;BME280;13604;52.496;13.456;2022-09-30T05:59:00;100747.91;;;4.58;100.00
25759;BME280;13604;52.496;13.456;2022-09-30T06:01:25;100738.38;;;4.60;100.00
25759;BME280;13604;52.496;13.456;2022-09-30T06:03:50;100745.78;;;4.69;100.00
25759;BME280;13604;52.496;13.456;2022-09-30T06:06:16;100733.22;;;4.83;100.00
25759;BME280;13604;52.496;13.456;2022-09-30T06:08:43;100746.03;;;5.08;100.00
25759;BME280;13604;52.496;13.456;2022-09-30T06:11:17;100733.78;;;5.35;100.00
25759;BME280;13604;52.496;13.456;2022-09-30T06:13:43;100749.84;;;5.63;100.00
25759;BME280;13604;52.496;13.456;2022-09-30T06:16:09;100758.91;;;5.95;100.00
25759;BME280;13604;52.496;13.456;2022-09-30T06:18:35;100755.97;;;6.23;100.00
25759;BME280;13604;52.496;13.456;2022-09-30T06:21:03;100762.66;;;6.47;100.00
25759;BME280;13604;52.496;13.456;2022-09-30T06:23:30;100760.09;;;6.66;100.00
25759;BME280;13604;52.496;13.456;2022-09-30T06:25:56;100753.13;;;6.87;100.00
25759;BME280;13604;52.496;13.456;2022-09-30T06:28:22;100765.00;;;7.10;100.00
25759;BME280;13604;52.496;13.456;2022-09-30T06:30:48;100766.88;;;7.25;100.00
25759;BME280;13604;52.496;13.456;2022-09-30T06:33:14;100750.47;;;7.43;100.00
25759;BME280;13604;52.496;13.456;2022-09-30T06:35:40;100767.28;;;7.88;100.00
25759;BME280;13604;52.496;13.456;2022-09-30T06:38:06;100774.34;;;8.19;100.00
25759;BME280;13604;52.496;13.456;2022-09-30T06:40:31;100770.41;;;8.46;100.00
25759;BME280;13604;52.496;13.456;2022-09-30T06:42:58;100783.78;;;8.71;100.00
25759;BME280;13604;52.496;13.456;2022-09-30T06:45:24;100780.69;;;8.96;100.00
25759;BME280;13604;52.496;13.456;2022-09-30T06:47:49;100787.84;;;8.93;100.00
25759;BME280;13604;52.496;13.456;2022-09-30T06:50:16;100793.66;;;8.81;100.00
25759;BME280;13604;52.496;13.456;2022-09-30T06:52:41;100781.28;;;9.01;100.00
25759;BME280;13604;52.496;13.456;2022-09-30T06:55:07;100797.56;;;9.21;100.00
25759;BME280;13604;52.496;13.456;2022-09-30T06:57:32;100790.78;;;9.34;100.00
25759;BME280;13604;52.496;13.456;2022-09-30T07:00:00;100802.50;;;9.57;100.00
25759;BME280;13604;52.496;13.456;2022-09-30T07:02:25;100787.13;;;9.52;100.00
25759;BME280;13604;52.496;13.456;2022-09-30T07:04:50;100796.47;;;9.86;100.00
25759;BME280;13604;52.496;13.456;2022-09-30T07:07:16;100793.38;;;10.09;100.00
25759;BME280;13604;52.496;13.456;2022-09-30T07:09:41;100801.81;;;10.29;100.00
25759;BME280;13604;52.496;13.456;2022-09-30T07:12:07;100798.97;;;10.47;100.00
25759;BME280;13604;52.496;13.456;2022-09-30T07:14:32;100794.59;;;10.62;100.00
25759;BME280;13604;52.496;13.456;2022-09-30T07:17:00;100805.38;;;10.99;100.00
25759;BME280;13604;52.496;13.456;2022-09-30T07:19:28;100799.75;;;11.19;100.00
25759;BME280;13604;52.496;13.456;2022-09-30T07:21:53;100800.63;;;11.46;100.00
25759;BME280;13604;52.496;13.456;2022-09-30T07:24:18;100800.38;;;11.63;100.00
25759;BME280;13604;52.496;13.456;2022-09-30T07:26:44;100794.22;;;11.79;100.00
25759;BME280;13604;52.496;13.456;2022-09-30T07:29:10;100805.66;;;12.03;100.00
25759;BME280;13604;52.496;13.456;2022-09-30T07:31:38;100807.88;;;12.34;100.00
25759;BME280;13604;52.496;13.456;2022-09-30T07:34:05;100809.03;;;12.56;100.00
25759;BME280;13604;52.496;13.456;2022-09-30T07:36:31;100806.19;;;12.84;100.00
25759;BME280;13604;52.496;13.456;2022-09-30T07:38:56;100800.91;;;13.09;98.51
25759;BME280;13604;52.496;13.456;2022-09-30T07:41:24;100803.53;;;13.09;96.34
25759;BME280;13604;52.496;13.456;2022-09-30T07:43:52;100813.72;;;13.38;94.40
25759;BME280;13604;52.496;13.456;2022-09-30T07:46:28;100819.16;;;13.47;90.91
25759;BME280;13604;52.496;13.456;2022-09-30T07:48:55;100818.53;;;13.44;92.13
25759;BME280;13604;52.496;13.456;2022-09-30T07:51:26;100811.28;;;13.71;89.96
25759;BME280;13604;52.496;13.456;2022-09-30T07:53:56;100811.34;;;13.59;89.79
25759;BME280;13604;52.496;13.456;2022-09-30T07:56:23;100815.94;;;13.68;86.47
25759;BME280;13604;52.496;13.456;2022-09-30T07:58:52;100808.94;;;13.32;87.56
25759;BME280;13604;52.496;13.456;2022-09-30T08:01:18;100816.75;;;13.44;88.79
25759;BME280;13604;52.496;13.456;2022-09-30T08:03:43;100820.38;;;14.02;87.53
25759;BME280;13604;52.496;13.456;2022-09-30T08:06:16;100831.44;;;14.41;83.28
25759;BME280;13604;52.496;13.456;2022-09-30T08:08:44;100826.47;;;14.71;81.25
25759;BME280;13604;52.496;13.456;2022-09-30T08:11:11;100829.34;;;15.13;79.49
25759;BME280;13604;52.496;13.456;2022-09-30T08:13:37;100843.50;;;15.44;79.26
25759;BME280;13604;52.496;13.456;2022-09-30T08:16:03;100838.81;;;15.47;76.14
25759;BME280;13604;52.496;13.456;2022-09-30T08:18:28;100842.78;;;16.17;73.88
25759;BME280;13604;52.496;13.456;2022-09-30T08:20:54;100841.19;;;16.46;70.59
25759;BME280;13604;52.496;13.456;2022-09-30T08:23:20;100844.03;;;16.54;69.37
25759;BME280;13604;52.496;13.456;2022-09-30T08:25:45;100849.97;;;16.35;69.53
25759;BME280;13604;52.496;13.456;2022-09-30T08:28:11;100845.72;;;16.86;69.31
25759;BME280;13604;52.496;13.456;2022-09-30T08:30:37;100842.97;;;17.77;65.64
25759;BME280;13604;52.496;13.456;2022-09-30T08:33:03;100838.78;;;18.13;63.12
25759;BME280;13604;52.496;13.456;2022-09-30T08:35:28;100848.63;;;18.40;61.00
25759;BME280;13604;52.496;13.456;2022-09-30T08:37:53;100840.38;;;19.09;58.90
25759;BME280;13604;52.496;13.456;2022-09-30T08:40:25;100841.91;;;19.39;56.17
25759;BME280;13604;52.496;13.456;2022-09-30T08:43:01;100842.63;;;19.58;55.73
25759;BME280;13604;52.496;13.456;2022-09-30T08:45:39;100854.66;;;20.42;53.47
25759;BME280;13604;52.496;13.456;2022-09-30T08:51:19;100854.47;;;20.95;48.97
25759;BME280;13604;52.496;13.456;2022-09-30T08:53:49;100852.31;;;21.32;48.90
25759;BME280;13604;52.496;13.456;2022-09-30T08:56:22;100846.41;;;21.47;47.46
25759;BME280;13604;52.496;13.456;2022-09-30T08:58:50;100853.81;;;20.67;48.16
25759;BME280;13604;52.496;13.456;2022-09-30T09:01:24;100859.53;;;20.88;49.77
25759;BME280;13604;52.496;13.456;2022-09-30T09:03:53;100847.78;;;20.83;48.52
25759;BME280;13604;52.496;13.456;2022-09-30T09:06:25;100862.44;;;21.37;47.53
25759;BME280;13604;52.496;13.456;2022-09-30T09:09:03;100856.91;;;20.88;46.34
25759;BME280;13604;52.496;13.456;2022-09-30T09:11:45;100864.34;;;21.69;45.84
25759;BME280;13604;52.496;13.456;2022-09-30T09:17:12;100856.81;;;23.10;42.92
25759;BME280;13604;52.496;13.456;2022-09-30T09:20:00;100862.38;;;21.79;43.61
25759;BME280;13604;52.496;13.456;2022-09-30T09:22:27;100863.72;;;21.91;43.50
25759;BME280;13604;52.496;13.456;2022-09-30T09:24:53;100857.53;;;21.58;43.67
25759;BME280;13604;52.496;13.456;2022-09-30T09:27:25;100862.16;;;21.14;44.02
25759;BME280;13604;52.496;13.456;2022-09-30T09:30:03;100861.59;;;21.02;45.91
25759;BME280;13604;52.496;13.456;2022-09-30T09:32:30;100859.44;;;20.64;47.18
25759;BME280;13604;52.496;13.456;2022-09-30T09:34:59;100850.31;;;22.49;43.21
25759;BME280;13604;52.496;13.456;2022-09-30T09:37:47;100856.34;;;24.00;41.42
25759;BME280;13604;52.496;13.456;2022-09-30T09:41:04;100854.78;;;25.24;36.37
25759;BME280;13604;52.496;13.456;2022-09-30T09:48:35;100841.03;;;24.02;37.10
25759;BME280;13604;52.496;13.456;2022-09-30T09:51:05;100846.25;;;24.70;36.29
25759;BME280;13604;52.496;13.456;2022-09-30T09:53:44;100848.56;;;23.36;37.13
25759;BME280;13604;52.496;13.456;2022-09-30T09:56:17;100843.91;;;23.07;39.35
25759;BME280;13604;52.496;13.456;2022-09-30T09:59:02;100838.75;;;24.36;36.95
25759;BME280;13604;52.496;13.456;2022-09-30T10:01:30;100833.94;;;24.69;36.33
25759;BME280;13604;52.496;13.456;2022-09-30T10:09:32;100840.66;;;24.94;33.65
25759;BME280;13604;52.496;13.456;2022-09-30T10:12:25;100836.66;;;24.76;34.21
25759;BME280;13604;52.496;13.456;2022-09-30T10:14:58;100828.22;;;24.87;34.65
25759;BME280;13604;52.496;13.456;2022-09-30T10:17:28;100836.88;;;23.53;35.15
25759;BME280;13604;52.496;13.456;2022-09-30T10:19:58;100822.53;;;24.46;36.23
25759;BME280;13604;52.496;13.456;2022-09-30T10:22:29;100837.38;;;24.92;34.44
25759;BME280;13604;52.496;13.456;2022-09-30T10:25:20;100829.31;;;23.65;36.33
25759;BME280;13604;52.496;13.456;2022-09-30T10:27:49;100831.88;;;24.27;37.23
25759;BME280;13604;52.496;13.456;2022-09-30T10:30:42;100828.69;;;24.76;34.80
25759;BME280;13604;52.496;13.456;2022-09-30T10:33:16;100823.13;;;24.33;35.37
25759;BME280;13604;52.496;13.456;2022-09-30T10:35:52;100822.91;;;24.20;36.59
25759;BME280;13604;52.496;13.456;2022-09-30T10:38:20;100815.19;;;24.92;35.36
25759;BME280;13604;52.496;13.456;2022-09-30T10:40:48;100814.34;;;26.49;34.68
25759;BME280;13604;52.496;13.456;2022-09-30T10:43:21;100818.13;;;25.84;33.35
25759;BME280;13604;52.496;13.456;2022-09-30T10:45:47;100809.88;;;25.07;34.15
25759;BME280;13604;52.496;13.456;2022-09-30T10:48:17;100808.88;;;26.07;34.40
25759;BME280;13604;52.496;13.456;2022-09-30T10:50:52;100810.69;;;26.91;31.29
25759;BME280;13604;52.496;13.456;2022-09-30T10:53:25;100811.63;;;27.72;31.15
25759;BME280;13604;52.496;13.456;2022-09-30T10:55:51;100806.69;;;27.88;29.19
25759;BME280;13604;52.496;13.456;2022-09-30T10:58:44;100801.38;;;26.18;30.96
25759;BME280;13604;52.496;13.456;2022-09-30T11:01:24;100796.69;;;27.36;30.52
25759;BME280;13604;52.496;13.456;2022-09-30T11:04:26;100802.97;;;25.48;32.91
25759;BME280;13604;52.496;13.456;2022-09-30T11:07:00;100799.31;;;25.34;33.79
25759;BME280;13604;52.496;13.456;2022-09-30T11:09:37;100797.06;;;26.17;30.90
25759;BME280;13604;52.496;13.456;2022-09-30T11:12:24;100801.31;;;25.62;33.03
25759;BME280;13604;52.496;13.456;2022-09-30T11:15:29;100801.22;;;27.36;30.71
25759;BME280;13604;52.496;13.456;2022-09-30T11:18:01;100801.56;;;25.52;32.31
25759;BME280;13604;52.496;13.456;2022-09-30T11:20:30;100793.78;;;25.51;34.40
25759;BME280;13604;52.496;13.456;2022-09-30T11:23:18;100791.34;;;26.89;31.80
25759;BME280;13604;52.496;13.456;2022-09-30T11:28:46;100793.53;;;30.05;27.61
25759;BME280;13604;52.496;13.456;2022-09-30T11:34:15;100777.91;;;30.38;22.73
25759;BME280;13604;52.496;13.456;2022-09-30T11:37:01;100774.53;;;27.95;26.12
25759;BME280;13604;52.496;13.456;2022-09-30T11:39:46;100781.16;;;28.25;26.92
25759;BME280;13604;52.496;13.456;2022-09-30T11:42:31;100779.84;;;31.04;25.47
25759;BME280;13604;52.496;13.456;2022-09-30T11:45:13;100779.34;;;31.44;21.96
25759;BME280;13604;52.496;13.456;2022-09-30T11:48:08;100784.41;;;29.81;24.09
25759;BME280;13604;52.496;13.456;2022-09-30T11:50:41;100779.31;;;28.97;25.14
25759;BME280;13604;52.496;13.456;2022-09-30T11:56:25;100785.22;;;27.62;25.49
25759;BME280;13604;52.496;13.456;2022-09-30T11:58:56;100777.84;;;27.77;26.55
25759;BME280;13604;52.496;13.456;2022-09-30T12:01:44;100785.75;;;29.34;25.26
25759;BME280;13604;52.496;13.456;2022-09-30T12:04:15;100784.50;;;28.92;24.44
25759;BME280;13604;52.496;13.456;2022-09-30T12:06:54;100782.16;;;27.98;26.38
25759;BME280;13604;52.496;13.456;2022-09-30T12:09:24;100774.41;;;29.32;24.69
25759;BME280;13604;52.496;13.456;2022-09-30T12:11:56;100770.94;;;30.92;22.98
25759;BME280;13604;52.496;13.456;2022-09-30T12:14:28;100778.16;;;32.05;21.96
25759;BME280;13604;52.496;13.456;2022-09-30T12:16:56;100783.47;;;30.00;21.71
25759;BME280;13604;52.496;13.456;2022-09-30T12:19:28;100779.06;;;30.06;22.74
25759;BME280;13604;52.496;13.456;2022-09-30T12:22:03;100769.38;;;32.09;21.93
25759;BME280;13604;52.496;13.456;2022-09-30T12:24:39;100770.44;;;32.08;20.76
25759;BME280;13604;52.496;13.456;2022-09-30T12:27:14;100776.63;;;30.66;22.06
25759;BME280;13604;52.496;13.456;2022-09-30T12:29:58;100773.94;;;31.86;20.31
25759;BME280;13604;52.496;13.456;2022-09-30T12:33:10;100777.59;;;33.01;19.45
25759;BME280;13604;52.496;13.456;2022-09-30T12:41:10;100778.63;;;31.78;20.27
25759;BME280;13604;52.496;13.456;2022-09-30T12:46:43;100782.78;;;27.80;23.93
25759;BME280;13604;52.496;13.456;2022-09-30T12:49:16;100769.00;;;27.90;24.44
25759;BME280;13604;52.496;13.456;2022-09-30T12:51:48;100774.38;;;29.01;23.50
25759;BME280;13604;52.496;13.456;2022-09-30T12:54:34;100778.66;;;29.78;22.35
25759;BME280;13604;52.496;13.456;2022-09-30T12:57:03;100784.53;;;29.93;21.96
25759;BME280;13604;52.496;13.456;2022-09-30T12:59:36;100775.78;;;30.04;21.45
25759;BME280;13604;52.496;13.456;2022-09-30T13:02:04;100772.16;;;29.60;22.17
25759;BME280;13604;52.496;13.456;2022-09-30T13:04:35;100770.84;;;31.29;21.91
25759;BME280;13604;52.496;13.456;2022-09-30T13:09:33;100779.38;;;33.52;18.50
25759;BME280;13604;52.496;13.456;2022-09-30T13:19:34;100766.63;;;31.63;21.64
25759;BME280;13604;52.496;13.456;2022-09-30T13:23:15;100780.34;;;28.05;24.01
25759;BME280;13604;52.496;13.456;2022-09-30T13:25:21;100782.09;;;25.16;28.29
25759;BME280;13604;52.496;13.456;2022-09-30T13:30:38;100778.53;;;25.87;28.21
25759;BME280;13604;52.496;13.456;2022-09-30T13:33:26;100770.13;;;29.24;24.15
25759;BME280;13604;52.496;13.456;2022-09-30T13:35:57;100776.31;;;29.25;22.26
25759;BME280;13604;52.496;13.456;2022-09-30T13:38:33;100769.47;;;30.60;21.95
25759;BME280;13604;52.496;13.456;2022-09-30T13:41:12;100775.72;;;28.58;24.34
25759;BME280;13604;52.496;13.456;2022-09-30T13:43:49;100773.22;;;25.30;26.91
25759;BME280;13604;52.496;13.456;2022-09-30T13:49:38;100782.66;;;21.56;35.60
25759;BME280;13604;52.496;13.456;2022-09-30T13:52:17;100779.13;;;20.55;36.21
25759;BME280;13604;52.496;13.456;2022-09-30T13:54:45;100772.94;;;21.15;35.74
25759;BME280;13604;52.496;13.456;2022-09-30T13:57:17;100774.91;;;21.71;34.48
25759;BME280;13604;52.496;13.456;2022-09-30T14:00:03;100774.56;;;22.14;35.83
25759;BME280;13604;52.496;13.456;2022-09-30T14:05:50;100773.22;;;26.43;26.64
25759;BME280;13604;52.496;13.456;2022-09-30T14:08:40;100769.63;;;24.43;28.76
25759;BME280;13604;52.496;13.456;2022-09-30T14:17:05;100776.25;;;19.97;36.45
25759;BME280;13604;52.496;13.456;2022-09-30T14:22:16;100772.75;;;23.94;33.54
25759;BME280;13604;52.496;13.456;2022-09-30T14:24:43;100768.25;;;27.22;28.07
25759;BME280;13604;52.496;13.456;2022-09-30T14:27:18;100774.97;;;28.05;24.30
25759;BME280;13604;52.496;13.456;2022-09-30T14:29:53;100769.19;;;27.88;23.14